sensor_id;sensor_type;location;lat;lon;timestamp;temperature;humidity
22069;DHT22;13887;57.196;-2.100;2023-04-09T00:00:15;9.00;80.81
22069;DHT22;13887;57.196;-2.100;2023-04-09T00:02:42;9.00;80.75
22069;DHT22;13887;57.196;-2.100;2023-04-09T00:05:09;9.01;80.78
22069;DHT22;13887;57.196;-2.100;2023-04-09T00:07:36;9.01;80.98
22069;DHT22;13887;57.196;-2.100;2023-04-09T00:10:04;8.98;80.91
22069;DHT22;13887;57.196;-2.100;2023-04-09T00:12:32;8.98;80.94
22069;DHT22;13887;57.196;-2.100;2023-04-09T00:14:59;8.97;80.93
22069;DHT22;13887;57.196;-2.100;2023-04-09T00:17:26;8.98;81.08
22069;DHT22;13887;57.196;-2.100;2023-04-09T00:19:53;8.98;81.03
22069;DHT22;13887;57.196;-2.100;2023-04-09T00:22:20;8.97;80.98
22069;DHT22;13887;57.196;-2.100;2023-04-09T00:24:47;8.98;81.14
22069;DHT22;13887;57.196;-2.100;2023-04-09T00:27:14;8.98;81.19
22069;DHT22;13887;57.196;-2.100;2023-04-09T00:29:42;8.98;81.13
22069;DHT22;13887;57.196;-2.100;2023-04-09T00:32:10;8.96;81.16
22069;DHT22;13887;57.196;-2.100;2023-04-09T00:34:37;8.98;81.16
22069;DHT22;13887;57.196;-2.100;2023-04-09T00:37:05;8.98;81.23
22069;DHT22;13887;57.196;-2.100;2023-04-09T00:39:32;8.96;81.33
22069;DHT22;13887;57.196;-2.100;2023-04-09T00:42:00;8.96;81.29
22069;DHT22;13887;57.196;-2.100;2023-04-09T00:44:30;8.96;81.32
22069;DHT22;13887;57.196;-2.100;2023-04-09T00:46:57;8.95;81.42
22069;DHT22;13887;57.196;-2.100;2023-04-09T00:49:25;8.94;81.49
22069;DHT22;13887;57.196;-2.100;2023-04-09T00:51:53;8.94;81.54
22069;DHT22;13887;57.196;-2.100;2023-04-09T00:54:20;8.97;81.51
22069;DHT22;13887;57.196;-2.100;2023-04-09T00:56:47;8.94;81.55
22069;DHT22;13887;57.196;-2.100;2023-04-09T00:59:15;8.94;81.49
22069;DHT22;13887;57.196;-2.100;2023-04-09T01:01:42;8.93;81.59
22069;DHT22;13887;57.196;-2.100;2023-04-09T01:04:09;8.93;81.62
22069;DHT22;13887;57.196;-2.100;2023-04-09T01:07:19;8.93;81.67
22069;DHT22;13887;57.196;-2.100;2023-04-09T01:10:00;8.93;81.65
22069;DHT22;13887;57.196;-2.100;2023-04-09T01:15:30;8.92;81.65
22069;DHT22;13887;57.196;-2.100;2023-04-09T01:21:04;8.92;81.61
22069;DHT22;13887;57.196;-2.100;2023-04-09T01:29:24;8.91;81.51
22069;DHT22;13887;57.196;-2.100;2023-04-09T01:31:53;8.90;81.45
22069;DHT22;13887;57.196;-2.100;2023-04-09T01:34:21;8.90;81.50
22069;DHT22;13887;57.196;-2.100;2023-04-09T01:36:53;8.93;81.51
22069;DHT22;13887;57.196;-2.100;2023-04-09T01:39:21;8.90;81.56
22069;DHT22;13887;57.196;-2.100;2023-04-09T01:41:49;8.90;81.58
22069;DHT22;13887;57.196;-2.100;2023-04-09T01:44:17;8.88;81.59
22069;DHT22;13887;57.196;-2.100;2023-04-09T01:46:48;8.88;81.56
22069;DHT22;13887;57.196;-2.100;2023-04-09T01:49:16;8.87;81.59
22069;DHT22;13887;57.196;-2.100;2023-04-09T01:51:44;8.88;81.59
22069;DHT22;13887;57.196;-2.100;2023-04-09T01:54:11;8.88;81.62
22069;DHT22;13887;57.196;-2.100;2023-04-09T01:56:42;8.87;81.60
22069;DHT22;13887;57.196;-2.100;2023-04-09T01:59:09;8.87;81.61
22069;DHT22;13887;57.196;-2.100;2023-04-09T02:01:48;8.85;81.67
22069;DHT22;13887;57.196;-2.100;2023-04-09T02:04:30;8.85;81.67
22069;DHT22;13887;57.196;-2.100;2023-04-09T02:09:44;8.85;81.68
22069;DHT22;13887;57.196;-2.100;2023-04-09T02:12:16;8.86;81.59
22069;DHT22;13887;57.196;-2.100;2023-04-09T02:14:45;8.83;81.54
22069;DHT22;13887;57.196;-2.100;2023-04-09T02:17:14;8.82;81.52
22069;DHT22;13887;57.196;-2.100;2023-04-09T02:19:46;8.85;81.51
22069;DHT22;13887;57.196;-2.100;2023-04-09T02:22:15;8.85;81.59
22069;DHT22;13887;57.196;-2.100;2023-04-09T02:24:42;8.85;81.58
22069;DHT22;13887;57.196;-2.100;2023-04-09T02:27:09;8.85;81.62
22069;DHT22;13887;57.196;-2.100;2023-04-09T02:29:40;8.83;81.65
22069;DHT22;13887;57.196;-2.100;2023-04-09T02:32:07;8.85;81.64
22069;DHT22;13887;57.196;-2.100;2023-04-09T02:34:34;8.82;81.62
22069;DHT22;13887;57.196;-2.100;2023-04-09T02:37:01;8.85;81.68
22069;DHT22;13887;57.196;-2.100;2023-04-09T02:39:28;8.81;81.77
22069;DHT22;13887;57.196;-2.100;2023-04-09T02:41:55;8.82;81.70
22069;DHT22;13887;57.196;-2.100;2023-04-09T02:44:25;8.82;81.76
22069;DHT22;13887;57.196;-2.100;2023-04-09T02:46:54;8.81;81.74
22069;DHT22;13887;57.196;-2.100;2023-04-09T02:49:21;8.80;81.74
22069;DHT22;13887;57.196;-2.100;2023-04-09T02:51:48;8.80;81.75
22069;DHT22;13887;57.196;-2.100;2023-04-09T02:54:15;8.80;81.78
22069;DHT22;13887;57.196;-2.100;2023-04-09T02:56:42;8.81;81.78
22069;DHT22;13887;57.196;-2.100;2023-04-09T02:59:09;8.78;81.78
22069;DHT22;13887;57.196;-2.100;2023-04-09T03:01:36;8.79;81.74
22069;DHT22;13887;57.196;-2.100;2023-04-09T03:04:03;8.78;81.72
22069;DHT22;13887;57.196;-2.100;2023-04-09T03:06:32;8.78;81.68
22069;DHT22;13887;57.196;-2.100;2023-04-09T03:08:59;8.76;81.75
22069;DHT22;13887;57.196;-2.100;2023-04-09T03:11:26;8.76;81.70
22069;DHT22;13887;57.196;-2.100;2023-04-09T03:13:53;8.77;81.74
22069;DHT22;13887;57.196;-2.100;2023-04-09T03:16:20;8.75;81.70
22069;DHT22;13887;57.196;-2.100;2023-04-09T03:18:50;8.77;81.67
22069;DHT22;13887;57.196;-2.100;2023-04-09T03:21:17;8.77;81.59
22069;DHT22;13887;57.196;-2.100;2023-04-09T03:23:48;8.75;81.62
22069;DHT22;13887;57.196;-2.100;2023-04-09T03:26:15;8.74;81.62
22069;DHT22;13887;57.196;-2.100;2023-04-09T03:28:46;8.75;81.55
22069;DHT22;13887;57.196;-2.100;2023-04-09T03:31:13;8.75;81.58
22069;DHT22;13887;57.196;-2.100;2023-04-09T03:33:42;8.75;81.60
22069;DHT22;13887;57.196;-2.100;2023-04-09T03:36:10;8.73;81.70
22069;DHT22;13887;57.196;-2.100;2023-04-09T03:38:52;8.72;81.70
22069;DHT22;13887;57.196;-2.100;2023-04-09T03:41:25;8.73;81.76
22069;DHT22;13887;57.196;-2.100;2023-04-09T03:43:55;8.71;81.83
22069;DHT22;13887;57.196;-2.100;2023-04-09T03:46:25;8.72;81.85
22069;DHT22;13887;57.196;-2.100;2023-04-09T03:48:54;8.71;81.61
22069;DHT22;13887;57.196;-2.100;2023-04-09T03:51:30;8.70;81.79
22069;DHT22;13887;57.196;-2.100;2023-04-09T03:53:58;8.70;81.84
22069;DHT22;13887;57.196;-2.100;2023-04-09T03:56:25;8.71;81.89
22069;DHT22;13887;57.196;-2.100;2023-04-09T03:58:52;8.70;81.91
22069;DHT22;13887;57.196;-2.100;2023-04-09T04:01:23;8.70;81.98
22069;DHT22;13887;57.196;-2.100;2023-04-09T04:03:54;8.70;81.94
22069;DHT22;13887;57.196;-2.100;2023-04-09T04:06:23;8.70;82.01
22069;DHT22;13887;57.196;-2.100;2023-04-09T04:09:02;8.68;82.10
22069;DHT22;13887;57.196;-2.100;2023-04-09T04:11:38;8.67;82.13
22069;DHT22;13887;57.196;-2.100;2023-04-09T04:14:05;8.67;82.23
22069;DHT22;13887;57.196;-2.100;2023-04-09T04:16:32;8.66;82.29
22069;DHT22;13887;57.196;-2.100;2023-04-09T04:19:02;8.68;82.28
22069;DHT22;13887;57.196;-2.100;2023-04-09T04:21:31;8.67;82.34
22069;DHT22;13887;57.196;-2.100;2023-04-09T04:24:00;8.66;82.36
22069;DHT22;13887;57.196;-2.100;2023-04-09T04:26:28;8.66;82.42
22069;DHT22;13887;57.196;-2.100;2023-04-09T04:28:57;8.65;82.52
22069;DHT22;13887;57.196;-2.100;2023-04-09T04:31:36;8.64;82.56
22069;DHT22;13887;57.196;-2.100;2023-04-09T04:34:03;8.63;82.58
22069;DHT22;13887;57.196;-2.100;2023-04-09T04:36:31;8.66;82.63
22069;DHT22;13887;57.196;-2.100;2023-04-09T04:38:58;8.66;82.61
22069;DHT22;13887;57.196;-2.100;2023-04-09T04:41:42;8.66;82.67
22069;DHT22;13887;57.196;-2.100;2023-04-09T04:44:17;8.65;82.75
22069;DHT22;13887;57.196;-2.100;2023-04-09T04:46:44;8.66;82.74
22069;DHT22;13887;57.196;-2.100;2023-04-09T04:49:11;8.65;82.79
22069;DHT22;13887;57.196;-2.100;2023-04-09T04:51:45;8.63;82.84
22069;DHT22;13887;57.196;-2.100;2023-04-09T04:54:14;8.63;82.97
22069;DHT22;13887;57.196;-2.100;2023-04-09T04:56:49;8.63;82.94
22069;DHT22;13887;57.196;-2.100;2023-04-09T04:59:39;8.63;83.02
22069;DHT22;13887;57.196;-2.100;2023-04-09T05:02:09;8.62;83.01
22069;DHT22;13887;57.196;-2.100;2023-04-09T05:05:05;8.61;83.06
22069;DHT22;13887;57.196;-2.100;2023-04-09T05:07:37;8.62;83.04
22069;DHT22;13887;57.196;-2.100;2023-04-09T05:10:05;8.62;83.13
22069;DHT22;13887;57.196;-2.100;2023-04-09T05:12:37;8.61;83.12
22069;DHT22;13887;57.196;-2.100;2023-04-09T05:15:06;8.60;83.10
22069;DHT22;13887;57.196;-2.100;2023-04-09T05:17:36;8.62;83.09
22069;DHT22;13887;57.196;-2.100;2023-04-09T05:20:05;8.64;83.02
22069;DHT22;13887;57.196;-2.100;2023-04-09T05:22:43;8.62;83.15
22069;DHT22;13887;57.196;-2.100;2023-04-09T05:25:10;8.61;83.24
22069;DHT22;13887;57.196;-2.100;2023-04-09T05:27:39;8.60;83.26
22069;DHT22;13887;57.196;-2.100;2023-04-09T05:30:07;8.60;83.35
22069;DHT22;13887;57.196;-2.100;2023-04-09T05:32:34;8.61;83.23
22069;DHT22;13887;57.196;-2.100;2023-04-09T05:35:03;8.61;83.29
22069;DHT22;13887;57.196;-2.100;2023-04-09T05:37:35;8.62;83.23
22069;DHT22;13887;57.196;-2.100;2023-04-09T05:40:03;8.61;83.27
22069;DHT22;13887;57.196;-2.100;2023-04-09T05:42:30;8.61;83.24
22069;DHT22;13887;57.196;-2.100;2023-04-09T05:45:04;8.62;83.31
22069;DHT22;13887;57.196;-2.100;2023-04-09T05:47:31;8.59;83.44
22069;DHT22;13887;57.196;-2.100;2023-04-09T05:50:07;8.59;83.40
22069;DHT22;13887;57.196;-2.100;2023-04-09T05:52:34;8.59;83.53
22069;DHT22;13887;57.196;-2.100;2023-04-09T05:55:03;8.57;83.57
22069;DHT22;13887;57.196;-2.100;2023-04-09T05:57:55;8.57;83.55
22069;DHT22;13887;57.196;-2.100;2023-04-09T06:00:23;8.60;83.52
22069;DHT22;13887;57.196;-2.100;2023-04-09T06:02:50;8.59;83.49
22069;DHT22;13887;57.196;-2.100;2023-04-09T06:05:18;8.59;83.57
22069;DHT22;13887;57.196;-2.100;2023-04-09T06:07:46;8.56;83.68
22069;DHT22;13887;57.196;-2.100;2023-04-09T06:10:13;8.56;83.71
22069;DHT22;13887;57.196;-2.100;2023-04-09T06:12:41;8.56;83.58
22069;DHT22;13887;57.196;-2.100;2023-04-09T06:15:08;8.57;83.49
22069;DHT22;13887;57.196;-2.100;2023-04-09T06:17:35;8.53;83.58
22069;DHT22;13887;57.196;-2.100;2023-04-09T06:20:02;8.55;83.75
22069;DHT22;13887;57.196;-2.100;2023-04-09T06:22:29;8.55;83.61
22069;DHT22;13887;57.196;-2.100;2023-04-09T06:24:56;8.55;83.55
22069;DHT22;13887;57.196;-2.100;2023-04-09T06:27:23;8.53;83.71
22069;DHT22;13887;57.196;-2.100;2023-04-09T06:29:50;8.56;83.59
22069;DHT22;13887;57.196;-2.100;2023-04-09T06:32:17;8.56;83.49
22069;DHT22;13887;57.196;-2.100;2023-04-09T06:34:44;8.56;83.44
22069;DHT22;13887;57.196;-2.100;2023-04-09T06:37:11;8.52;83.58
22069;DHT22;13887;57.196;-2.100;2023-04-09T06:39:39;8.55;83.52
22069;DHT22;13887;57.196;-2.100;2023-04-09T06:42:19;8.53;83.70
22069;DHT22;13887;57.196;-2.100;2023-04-09T06:44:56;8.55;83.58
22069;DHT22;13887;57.196;-2.100;2023-04-09T06:47:23;8.56;83.55
22069;DHT22;13887;57.196;-2.100;2023-04-09T06:49:50;8.56;83.55
22069;DHT22;13887;57.196;-2.100;2023-04-09T06:52:17;8.55;83.73
22069;DHT22;13887;57.196;-2.100;2023-04-09T06:54:44;8.53;83.80
22069;DHT22;13887;57.196;-2.100;2023-04-09T06:57:11;8.52;84.00
22069;DHT22;13887;57.196;-2.100;2023-04-09T06:59:38;8.51;83.90
22069;DHT22;13887;57.196;-2.100;2023-04-09T07:02:05;8.53;83.80
22069;DHT22;13887;57.196;-2.100;2023-04-09T07:04:33;8.52;83.75
22069;DHT22;13887;57.196;-2.100;2023-04-09T07:07:00;8.50;83.77
22069;DHT22;13887;57.196;-2.100;2023-04-09T07:09:27;8.51;83.82
22069;DHT22;13887;57.196;-2.100;2023-04-09T07:11:54;8.51;83.84
22069;DHT22;13887;57.196;-2.100;2023-04-09T07:14:22;8.52;83.93
22069;DHT22;13887;57.196;-2.100;2023-04-09T07:16:49;8.53;83.87
22069;DHT22;13887;57.196;-2.100;2023-04-09T07:19:16;8.53;83.89
22069;DHT22;13887;57.196;-2.100;2023-04-09T07:21:43;8.53;83.85
22069;DHT22;13887;57.196;-2.100;2023-04-09T07:24:10;8.53;83.87
22069;DHT22;13887;57.196;-2.100;2023-04-09T07:26:37;8.52;83.92
22069;DHT22;13887;57.196;-2.100;2023-04-09T07:29:03;8.52;83.96
22069;DHT22;13887;57.196;-2.100;2023-04-09T07:31:31;8.53;83.91
22069;DHT22;13887;57.196;-2.100;2023-04-09T07:34:01;8.53;83.84
22069;DHT22;13887;57.196;-2.100;2023-04-09T07:36:28;8.52;83.84
22069;DHT22;13887;57.196;-2.100;2023-04-09T07:38:56;8.53;83.86
22069;DHT22;13887;57.196;-2.100;2023-04-09T07:41:24;8.51;84.00
22069;DHT22;13887;57.196;-2.100;2023-04-09T07:43:51;8.51;83.95
22069;DHT22;13887;57.196;-2.100;2023-04-09T07:46:19;8.53;83.90
22069;DHT22;13887;57.196;-2.100;2023-04-09T07:48:47;8.51;83.94
22069;DHT22;13887;57.196;-2.100;2023-04-09T07:51:16;8.55;83.84
22069;DHT22;13887;57.196;-2.100;2023-04-09T07:53:43;8.50;83.99
22069;DHT22;13887;57.196;-2.100;2023-04-09T07:56:10;8.52;83.93
22069;DHT22;13887;57.196;-2.100;2023-04-09T07:58:37;8.51;84.06
22069;DHT22;13887;57.196;-2.100;2023-04-09T08:01:04;8.51;84.02
22069;DHT22;13887;57.196;-2.100;2023-04-09T08:03:31;8.50;84.03
22069;DHT22;13887;57.196;-2.100;2023-04-09T08:05:58;8.50;84.00
22069;DHT22;13887;57.196;-2.100;2023-04-09T08:08:27;8.51;84.05
22069;DHT22;13887;57.196;-2.100;2023-04-09T08:10:54;8.50;84.07
22069;DHT22;13887;57.196;-2.100;2023-04-09T08:13:22;8.51;84.04
22069;DHT22;13887;57.196;-2.100;2023-04-09T08:15:50;8.51;84.04
22069;DHT22;13887;57.196;-2.100;2023-04-09T08:18:17;8.52;84.04
22069;DHT22;13887;57.196;-2.100;2023-04-09T08:20:44;8.53;84.10
22069;DHT22;13887;57.196;-2.100;2023-04-09T08:23:12;8.51;84.22
22069;DHT22;13887;57.196;-2.100;2023-04-09T08:25:39;8.52;84.16
22069;DHT22;13887;57.196;-2.100;2023-04-09T08:28:06;8.53;84.23
22069;DHT22;13887;57.196;-2.100;2023-04-09T08:30:33;8.52;84.29
22069;DHT22;13887;57.196;-2.100;2023-04-09T08:33:01;8.56;84.21
22069;DHT22;13887;57.196;-2.100;2023-04-09T08:35:30;8.55;84.22
22069;DHT22;13887;57.196;-2.100;2023-04-09T08:37:58;8.56;84.22
22069;DHT22;13887;57.196;-2.100;2023-04-09T08:40:25;8.55;84.35
22069;DHT22;13887;57.196;-2.100;2023-04-09T08:42:54;8.53;84.29
22069;DHT22;13887;57.196;-2.100;2023-04-09T08:45:22;8.57;84.19
22069;DHT22;13887;57.196;-2.100;2023-04-09T08:47:50;8.57;84.13
22069;DHT22;13887;57.196;-2.100;2023-04-09T08:50:18;8.59;84.16
22069;DHT22;13887;57.196;-2.100;2023-04-09T08:52:46;8.60;84.08
22069;DHT22;13887;57.196;-2.100;2023-04-09T08:55:14;8.59;84.16
22069;DHT22;13887;57.196;-2.100;2023-04-09T08:57:41;8.58;84.20
22069;DHT22;13887;57.196;-2.100;2023-04-09T09:00:09;8.58;84.15
22069;DHT22;13887;57.196;-2.100;2023-04-09T09:02:37;8.57;84.20
22069;DHT22;13887;57.196;-2.100;2023-04-09T09:05:05;8.58;84.14
22069;DHT22;13887;57.196;-2.100;2023-04-09T09:07:32;8.58;84.12
22069;DHT22;13887;57.196;-2.100;2023-04-09T09:10:00;8.60;84.05
22069;DHT22;13887;57.196;-2.100;2023-04-09T09:12:35;8.58;84.13
22069;DHT22;13887;57.196;-2.100;2023-04-09T09:15:23;8.59;84.17
22069;DHT22;13887;57.196;-2.100;2023-04-09T09:17:54;8.57;84.25
22069;DHT22;13887;57.196;-2.100;2023-04-09T09:20:23;8.56;84.19
22069;DHT22;13887;57.196;-2.100;2023-04-09T09:22:51;8.56;84.11
22069;DHT22;13887;57.196;-2.100;2023-04-09T09:25:21;8.58;84.14
22069;DHT22;13887;57.196;-2.100;2023-04-09T09:27:53;8.57;84.20
22069;DHT22;13887;57.196;-2.100;2023-04-09T09:30:23;8.58;84.19
22069;DHT22;13887;57.196;-2.100;2023-04-09T09:33:04;8.60;84.06
22069;DHT22;13887;57.196;-2.100;2023-04-09T09:35:52;8.59;84.10
22069;DHT22;13887;57.196;-2.100;2023-04-09T09:38:20;8.57;83.98
22069;DHT22;13887;57.196;-2.100;2023-04-09T09:40:48;8.60;84.00
22069;DHT22;13887;57.196;-2.100;2023-04-09T09:43:15;8.59;84.04
22069;DHT22;13887;57.196;-2.100;2023-04-09T09:45:43;8.58;83.98
22069;DHT22;13887;57.196;-2.100;2023-04-09T09:48:12;8.59;84.00
22069;DHT22;13887;57.196;-2.100;2023-04-09T09:50:40;8.59;83.97
22069;DHT22;13887;57.196;-2.100;2023-04-09T09:53:10;8.61;83.97
22069;DHT22;13887;57.196;-2.100;2023-04-09T09:55:39;8.61;83.97
22069;DHT22;13887;57.196;-2.100;2023-04-09T09:58:23;8.59;83.96
22069;DHT22;13887;57.196;-2.100;2023-04-09T10:00:54;8.61;83.97
22069;DHT22;13887;57.196;-2.100;2023-04-09T10:03:26;8.63;83.85
22069;DHT22;13887;57.196;-2.100;2023-04-09T10:05:56;8.63;83.74
22069;DHT22;13887;57.196;-2.100;2023-04-09T10:08:24;8.65;83.74
22069;DHT22;13887;57.196;-2.100;2023-04-09T10:10:52;8.64;83.82
22069;DHT22;13887;57.196;-2.100;2023-04-09T10:13:36;8.63;83.75
22069;DHT22;13887;57.196;-2.100;2023-04-09T10:16:03;8.65;83.85
22069;DHT22;13887;57.196;-2.100;2023-04-09T10:18:33;8.62;83.89
22069;DHT22;13887;57.196;-2.100;2023-04-09T10:21:11;8.62;83.86
22069;DHT22;13887;57.196;-2.100;2023-04-09T10:23:44;8.65;83.82
22069;DHT22;13887;57.196;-2.100;2023-04-09T10:26:13;8.65;83.74
22069;DHT22;13887;57.196;-2.100;2023-04-09T10:28:42;8.63;83.87
22069;DHT22;13887;57.196;-2.100;2023-04-09T10:31:09;8.65;83.84
22069;DHT22;13887;57.196;-2.100;2023-04-09T10:33:37;8.65;83.91
22069;DHT22;13887;57.196;-2.100;2023-04-09T10:36:11;8.63;83.90
22069;DHT22;13887;57.196;-2.100;2023-04-09T10:38:44;8.65;83.81
22069;DHT22;13887;57.196;-2.100;2023-04-09T10:41:14;8.66;83.85
22069;DHT22;13887;57.196;-2.100;2023-04-09T10:43:46;8.65;84.06
22069;DHT22;13887;57.196;-2.100;2023-04-09T10:46:27;8.65;84.12
22069;DHT22;13887;57.196;-2.100;2023-04-09T10:49:11;8.65;84.09
22069;DHT22;13887;57.196;-2.100;2023-04-09T10:51:40;8.64;84.16
22069;DHT22;13887;57.196;-2.100;2023-04-09T10:59:39;8.63;84.29
22069;DHT22;13887;57.196;-2.100;2023-04-09T11:10:36;8.66;84.27
22069;DHT22;13887;57.196;-2.100;2023-04-09T11:13:04;8.64;84.33
22069;DHT22;13887;57.196;-2.100;2023-04-09T11:15:34;8.66;84.42
22069;DHT22;13887;57.196;-2.100;2023-04-09T11:18:02;8.67;84.52
22069;DHT22;13887;57.196;-2.100;2023-04-09T11:20:32;8.65;84.59
22069;DHT22;13887;57.196;-2.100;2023-04-09T11:22:59;8.65;84.44
22069;DHT22;13887;57.196;-2.100;2023-04-09T11:25:29;8.68;84.47
22069;DHT22;13887;57.196;-2.100;2023-04-09T11:27:57;8.68;84.29
22069;DHT22;13887;57.196;-2.100;2023-04-09T11:30:25;8.71;84.23
22069;DHT22;13887;57.196;-2.100;2023-04-09T11:32:51;8.68;84.23
22069;DHT22;13887;57.196;-2.100;2023-04-09T11:35:21;8.70;84.00
22069;DHT22;13887;57.196;-2.100;2023-04-09T11:37:49;8.70;84.04
22069;DHT22;13887;57.196;-2.100;2023-04-09T11:40:25;8.67;84.19
22069;DHT22;13887;57.196;-2.100;2023-04-09T11:42:55;8.65;84.32
22069;DHT22;13887;57.196;-2.100;2023-04-09T11:45:25;8.68;84.16
22069;DHT22;13887;57.196;-2.100;2023-04-09T11:47:52;8.68;84.22
22069;DHT22;13887;57.196;-2.100;2023-04-09T11:50:20;8.70;84.22
22069;DHT22;13887;57.196;-2.100;2023-04-09T11:52:48;8.68;84.34
22069;DHT22;13887;57.196;-2.100;2023-04-09T11:55:41;8.70;84.38
22069;DHT22;13887;57.196;-2.100;2023-04-09T11:58:09;8.68;84.46
22069;DHT22;13887;57.196;-2.100;2023-04-09T12:00:39;8.67;84.29
22069;DHT22;13887;57.196;-2.100;2023-04-09T12:03:09;8.67;84.35
22069;DHT22;13887;57.196;-2.100;2023-04-09T12:05:37;8.65;84.51
22069;DHT22;13887;57.196;-2.100;2023-04-09T12:08:08;8.67;84.31
22069;DHT22;13887;57.196;-2.100;2023-04-09T12:10:37;8.66;84.32
22069;DHT22;13887;57.196;-2.100;2023-04-09T12:13:08;8.68;84.26
22069;DHT22;13887;57.196;-2.100;2023-04-09T12:15:40;8.70;84.03
22069;DHT22;13887;57.196;-2.100;2023-04-09T12:18:11;8.72;83.90
22069;DHT22;13887;57.196;-2.100;2023-04-09T12:20:40;8.71;83.90
22069;DHT22;13887;57.196;-2.100;2023-04-09T12:23:12;8.73;83.78
22069;DHT22;13887;57.196;-2.100;2023-04-09T12:25:41;8.71;83.92
22069;DHT22;13887;57.196;-2.100;2023-04-09T12:28:11;8.72;83.65
22069;DHT22;13887;57.196;-2.100;2023-04-09T12:30:42;8.72;83.68
22069;DHT22;13887;57.196;-2.100;2023-04-09T12:33:10;8.72;83.37
22069;DHT22;13887;57.196;-2.100;2023-04-09T12:35:37;8.75;83.26
22069;DHT22;13887;57.196;-2.100;2023-04-09T12:38:04;8.72;83.49
22069;DHT22;13887;57.196;-2.100;2023-04-09T12:40:32;8.72;83.44
22069;DHT22;13887;57.196;-2.100;2023-04-09T12:42:59;8.74;83.39
22069;DHT22;13887;57.196;-2.100;2023-04-09T12:45:26;8.74;83.43
22069;DHT22;13887;57.196;-2.100;2023-04-09T12:47:53;8.74;83.55
22069;DHT22;13887;57.196;-2.100;2023-04-09T12:50:21;8.72;83.70
22069;DHT22;13887;57.196;-2.100;2023-04-09T12:52:48;8.73;83.59
22069;DHT22;13887;57.196;-2.100;2023-04-09T12:55:15;8.72;83.64
22069;DHT22;13887;57.196;-2.100;2023-04-09T12:57:43;8.72;83.78
22069;DHT22;13887;57.196;-2.100;2023-04-09T13:00:12;8.68;83.93
22069;DHT22;13887;57.196;-2.100;2023-04-09T13:02:39;8.71;83.71
22069;DHT22;13887;57.196;-2.100;2023-04-09T13:05:07;8.68;83.95
22069;DHT22;13887;57.196;-2.100;2023-04-09T13:07:34;8.71;83.80
22069;DHT22;13887;57.196;-2.100;2023-04-09T13:10:01;8.67;83.96
22069;DHT22;13887;57.196;-2.100;2023-04-09T13:12:28;8.65;84.00
22069;DHT22;13887;57.196;-2.100;2023-04-09T13:14:56;8.67;84.07
22069;DHT22;13887;57.196;-2.100;2023-04-09T13:17:25;8.77;83.78
22069;DHT22;13887;57.196;-2.100;2023-04-09T13:19:53;8.77;84.43
22069;DHT22;13887;57.196;-2.100;2023-04-09T13:22:20;8.74;85.06
22069;DHT22;13887;57.196;-2.100;2023-04-09T13:24:47;8.67;85.61
22069;DHT22;13887;57.196;-2.100;2023-04-09T13:27:15;8.67;86.03
22069;DHT22;13887;57.196;-2.100;2023-04-09T13:29:42;8.65;86.36
22069;DHT22;13887;57.196;-2.100;2023-04-09T13:32:09;8.65;86.33
22069;DHT22;13887;57.196;-2.100;2023-04-09T13:34:38;8.67;86.41
22069;DHT22;13887;57.196;-2.100;2023-04-09T13:37:05;8.67;86.59
22069;DHT22;13887;57.196;-2.100;2023-04-09T13:39:33;8.66;86.77
22069;DHT22;13887;57.196;-2.100;2023-04-09T13:42:00;8.66;86.67
22069;DHT22;13887;57.196;-2.100;2023-04-09T13:44:35;8.65;86.83
22069;DHT22;13887;57.196;-2.100;2023-04-09T13:47:03;8.65;86.88
22069;DHT22;13887;57.196;-2.100;2023-04-09T13:49:30;8.64;86.93
22069;DHT22;13887;57.196;-2.100;2023-04-09T13:51:57;8.64;87.03
22069;DHT22;13887;57.196;-2.100;2023-04-09T13:54:25;8.63;87.03
22069;DHT22;13887;57.196;-2.100;2023-04-09T13:56:52;8.61;87.23
22069;DHT22;13887;57.196;-2.100;2023-04-09T13:59:19;8.67;86.84
22069;DHT22;13887;57.196;-2.100;2023-04-09T14:01:46;8.68;86.78
22069;DHT22;13887;57.196;-2.100;2023-04-09T14:04:14;8.67;86.94
22069;DHT22;13887;57.196;-2.100;2023-04-09T14:06:41;8.65;86.95
22069;DHT22;13887;57.196;-2.100;2023-04-09T14:09:09;8.68;86.76
22069;DHT22;13887;57.196;-2.100;2023-04-09T14:11:37;8.67;86.91
22069;DHT22;13887;57.196;-2.100;2023-04-09T14:14:04;8.68;86.74
22069;DHT22;13887;57.196;-2.100;2023-04-09T14:16:31;8.70;86.80
22069;DHT22;13887;57.196;-2.100;2023-04-09T14:18:58;8.71;86.83
22069;DHT22;13887;57.196;-2.100;2023-04-09T14:21:25;8.71;86.71
22069;DHT22;13887;57.196;-2.100;2023-04-09T14:23:52;8.73;86.75
22069;DHT22;13887;57.196;-2.100;2023-04-09T14:26:20;8.72;86.64
22069;DHT22;13887;57.196;-2.100;2023-04-09T14:28:50;8.72;86.66
22069;DHT22;13887;57.196;-2.100;2023-04-09T14:31:17;8.70;86.91
22069;DHT22;13887;57.196;-2.100;2023-04-09T14:33:47;8.70;86.83
22069;DHT22;13887;57.196;-2.100;2023-04-09T14:36:14;8.70;86.82
22069;DHT22;13887;57.196;-2.100;2023-04-09T14:38:42;8.65;86.92
22069;DHT22;13887;57.196;-2.100;2023-04-09T14:41:09;8.70;86.90
22069;DHT22;13887;57.196;-2.100;2023-04-09T14:43:36;8.68;87.02
22069;DHT22;13887;57.196;-2.100;2023-04-09T14:46:03;8.68;86.81
22069;DHT22;13887;57.196;-2.100;2023-04-09T14:48:32;8.67;86.85
22069;DHT22;13887;57.196;-2.100;2023-04-09T14:50:59;8.66;86.91
22069;DHT22;13887;57.196;-2.100;2023-04-09T14:53:27;8.68;86.89
22069;DHT22;13887;57.196;-2.100;2023-04-09T14:55:54;8.68;86.80
22069;DHT22;13887;57.196;-2.100;2023-04-09T14:58:21;8.67;87.19
22069;DHT22;13887;57.196;-2.100;2023-04-09T15:00:49;8.66;87.34
22069;DHT22;13887;57.196;-2.100;2023-04-09T15:03:16;8.70;87.14
22069;DHT22;13887;57.196;-2.100;2023-04-09T15:05:44;8.66;87.17
22069;DHT22;13887;57.196;-2.100;2023-04-09T15:08:11;8.68;87.15
22069;DHT22;13887;57.196;-2.100;2023-04-09T15:10:39;8.70;87.06
22069;DHT22;13887;57.196;-2.100;2023-04-09T15:13:06;8.65;87.06
22069;DHT22;13887;57.196;-2.100;2023-04-09T15:15:33;8.66;86.79
22069;DHT22;13887;57.196;-2.100;2023-04-09T15:18:00;8.65;86.87
22069;DHT22;13887;57.196;-2.100;2023-04-09T15:20:39;8.66;86.92
22069;DHT22;13887;57.196;-2.100;2023-04-09T15:23:09;8.63;86.94
22069;DHT22;13887;57.196;-2.100;2023-04-09T15:25:37;8.66;86.84
22069;DHT22;13887;57.196;-2.100;2023-04-09T15:28:05;8.66;86.90
22069;DHT22;13887;57.196;-2.100;2023-04-09T15:30:32;8.68;86.80
22069;DHT22;13887;57.196;-2.100;2023-04-09T15:33:01;8.64;86.85
22069;DHT22;13887;57.196;-2.100;2023-04-09T15:35:28;8.78;86.30
22069;DHT22;13887;57.196;-2.100;2023-04-09T15:37:55;8.83;85.93
22069;DHT22;13887;57.196;-2.100;2023-04-09T15:40:23;8.78;85.90
22069;DHT22;13887;57.196;-2.100;2023-04-09T15:42:50;8.77;85.79
22069;DHT22;13887;57.196;-2.100;2023-04-09T15:45:17;8.77;85.68
22069;DHT22;13887;57.196;-2.100;2023-04-09T15:47:44;8.76;85.54
22069;DHT22;13887;57.196;-2.100;2023-04-09T15:50:12;8.77;85.23
22069;DHT22;13887;57.196;-2.100;2023-04-09T15:52:40;8.75;84.97
22069;DHT22;13887;57.196;-2.100;2023-04-09T15:55:08;8.75;84.97
22069;DHT22;13887;57.196;-2.100;2023-04-09T15:57:35;8.73;85.01
22069;DHT22;13887;57.196;-2.100;2023-04-09T16:00:04;8.74;84.89
22069;DHT22;13887;57.196;-2.100;2023-04-09T16:02:35;8.71;84.84
22069;DHT22;13887;57.196;-2.100;2023-04-09T16:05:04;8.71;84.77
22069;DHT22;13887;57.196;-2.100;2023-04-09T16:07:33;8.74;84.67
22069;DHT22;13887;57.196;-2.100;2023-04-09T16:10:00;8.72;84.58